Time;durP1;ratioP1;P1;durP2;ratioP2;P2;SDS_P1;SDS_P2;PMS_P1;PMS_P2;Temp;Humidity;BMP_temperature;BMP_pressure;BME280_temperature;BME280_humidity;BME280_pressure;Samples;Min_cycle;Max_cycle;Signal;HPM_P1;HPM_P2
2022/07/08 00:03:05;;;;;;;8.00;1.92;;;14.10;99.90;;;;;;12461547;28;20073;-36
2022/07/08 00:09:10;;;;;;;15.27;2.47;;;14.30;99.90;;;;;;12484507;28;20046;-36
2022/07/08 00:15:11;;;;;;;9.80;1.55;;;14.20;99.90;;;;;;12495292;28;20144;-36
2022/07/08 00:21:13;;;;;;;12.65;1.88;;;14.30;99.90;;;;;;12493198;28;20090;-36
2022/07/08 00:27:15;;;;;;;13.25;2.38;;;14.20;99.90;;;;;;12498970;28;20045;-36
2022/07/08 00:33:17;;;;;;;11.25;1.75;;;14.10;99.90;;;;;;12489835;28;20390;-39
2022/07/08 00:39:18;;;;;;;10.73;2.15;;;14.10;99.90;;;;;;12474935;28;20386;-36
2022/07/08 00:45:20;;;;;;;7.35;1.67;;;14.20;99.90;;;;;;12489968;28;20054;-36
2022/07/08 00:51:23;;;;;;;10.63;1.88;;;14.20;99.90;;;;;;12494670;28;20077;-39
2022/07/08 00:57:25;;;;;;;6.93;1.75;;;14.10;99.90;;;;;;12492704;28;20516;-40
2022/07/08 01:03:27;;;;;;;13.10;1.83;;;13.90;99.90;;;;;;12487050;28;20568;-40
2022/07/08 01:09:29;;;;;;;8.25;1.58;;;14.00;99.90;;;;;;12494981;28;20077;-36
2022/07/08 01:15:32;;;;;;;10.02;1.85;;;14.10;99.90;;;;;;12484776;28;20053;-41
2022/07/08 01:21:34;;;;;;;8.85;1.95;;;14.10;99.90;;;;;;12488742;28;20045;-39
2022/07/08 01:27:36;;;;;;;14.10;1.90;;;14.20;99.90;;;;;;12491680;28;20552;-39
2022/07/08 01:33:38;;;;;;;8.98;1.70;;;14.10;99.90;;;;;;12495688;28;20135;-36
2022/07/08 01:39:40;;;;;;;9.13;1.85;;;14.00;99.90;;;;;;12488611;28;20128;-40
2022/07/08 01:45:42;;;;;;;13.13;1.80;;;14.20;99.90;;;;;;12483466;28;20132;-37
2022/07/08 01:51:44;;;;;;;8.35;1.67;;;14.00;99.90;;;;;;12484794;28;20469;-36
2022/07/08 01:57:46;;;;;;;9.77;1.65;;;14.00;99.90;;;;;;12488036;28;20096;-37
2022/07/08 02:03:48;;;;;;;12.02;2.00;;;13.80;99.90;;;;;;12481740;28;20574;-40
2022/07/08 02:09:50;;;;;;;9.98;1.65;;;14.10;99.90;;;;;;12489491;28;20041;-41
2022/07/08 02:15:51;;;;;;;12.25;1.77;;;14.00;99.90;;;;;;12480788;28;20628;-37
2022/07/08 02:21:53;;;;;;;12.32;1.83;;;13.90;99.90;;;;;;12484436;28;20124;-36
2022/07/08 02:27:55;;;;;;;11.00;1.40;;;14.10;99.90;;;;;;12486782;28;20140;-36
2022/07/08 02:33:57;;;;;;;9.45;2.15;;;14.00;99.90;;;;;;12495746;28;20139;-39
2022/07/08 02:39:59;;;;;;;9.27;2.13;;;13.80;99.90;;;;;;12485158;28;20106;-39
2022/07/08 02:46:01;;;;;;;9.55;2.17;;;14.00;99.90;;;;;;12490542;28;20057;-36
2022/07/08 02:52:03;;;;;;;10.10;1.60;;;14.10;99.90;;;;;;12489659;28;20056;-39
2022/07/08 02:58:05;;;;;;;15.02;2.05;;;14.00;99.90;;;;;;12485813;28;20049;-36
2022/07/08 03:04:06;;;;;;;10.75;1.70;;;13.80;99.90;;;;;;12480668;28;20049;-39
2022/07/08 03:10:08;;;;;;;9.95;1.80;;;13.80;99.90;;;;;;12490874;28;20489;-36
2022/07/08 03:16:10;;;;;;;12.93;1.90;;;13.70;99.90;;;;;;12472916;28;20106;-39
2022/07/08 03:22:12;;;;;;;7.20;1.70;;;13.70;99.90;;;;;;12469503;28;20062;-36
2022/07/08 03:28:14;;;;;;;9.68;1.60;;;13.90;99.90;;;;;;12485094;28;20053;-36
2022/07/08 03:34:16;;;;;;;14.20;1.80;;;13.70;99.90;;;;;;12472834;28;20120;-39
2022/07/08 03:46:38;;;;;;;8.00;1.73;;;13.70;99.90;;;;;;12472977;28;20099;-39
2022/07/08 03:52:40;;;;;;;8.73;1.52;;;13.80;99.90;;;;;;12466701;28;20045;-39
2022/07/08 03:58:42;;;;;;;10.70;1.90;;;13.70;99.90;;;;;;12498831;28;20482;-39
2022/07/08 04:04:44;;;;;;;11.95;1.63;;;13.80;99.90;;;;;;12488651;28;20072;-39
2022/07/08 04:10:46;;;;;;;10.23;1.65;;;13.80;99.90;;;;;;12488381;28;20113;-36
2022/07/08 04:16:47;;;;;;;7.93;1.70;;;13.70;99.90;;;;;;12490832;28;20085;-39
2022/07/08 04:22:49;;;;;;;6.13;1.52;;;13.80;99.90;;;;;;12492198;28;20054;-39
2022/07/08 04:28:52;;;;;;;4.53;1.52;;;13.80;99.90;;;;;;12478559;28;20148;-39
2022/07/08 04:34:58;;;;;;;9.02;1.73;;;13.90;99.90;;;;;;12481973;28;20068;-36
2022/07/08 04:40:59;;;;;;;9.60;1.63;;;13.70;99.90;;;;;;12499336;28;20046;-39
2022/07/08 04:47:01;;;;;;;11.10;1.65;;;13.80;99.90;;;;;;12496312;28;20180;-36
2022/07/08 04:53:03;;;;;;;9.85;1.60;;;13.70;99.90;;;;;;12489433;28;20050;-40
2022/07/08 04:59:06;;;;;;;6.60;2.13;;;13.70;99.90;;;;;;12480534;28;20053;-42
2022/07/08 05:05:08;;;;;;;6.20;1.58;;;13.80;99.90;;;;;;12482146;28;20100;-41
2022/07/08 05:11:12;;;;;;;7.57;1.50;;;13.80;99.90;;;;;;12477519;28;20096;-36
2022/07/08 05:17:14;;;;;;;12.00;2.10;;;13.90;99.90;;;;;;12488208;28;20511;-39
2022/07/08 05:23:16;;;;;;;10.13;2.00;;;13.70;99.90;;;;;;12472226;28;20132;-36
2022/07/08 05:29:18;;;;;;;7.72;2.00;;;13.90;99.90;;;;;;12492355;28;20136;-37
2022/07/08 05:35:20;;;;;;;8.82;1.65;;;14.00;99.90;;;;;;12490357;28;20053;-37
2022/07/08 05:41:22;;;;;;;11.55;1.92;;;14.00;99.90;;;;;;12479369;28;20192;-39
2022/07/08 05:47:24;;;;;;;8.93;1.65;;;13.90;99.90;;;;;;12487773;28;20102;-40
2022/07/08 05:53:25;;;;;;;13.88;1.95;;;13.90;99.90;;;;;;12492978;28;20052;-39
2022/07/08 05:59:28;;;;;;;11.48;1.60;;;13.90;99.90;;;;;;12484831;28;20094;-39
2022/07/08 06:05:33;;;;;;;9.88;1.60;;;14.00;99.90;;;;;;12484072;28;20196;-39
2022/07/08 06:11:35;;;;;;;7.75;1.48;;;14.20;99.90;;;;;;12484805;28;20041;-37
2022/07/08 06:17:37;;;;;;;12.35;1.80;;;14.10;99.90;;;;;;12478297;28;20053;-37
2022/07/08 06:23:39;;;;;;;12.90;1.67;;;14.10;99.90;;;;;;12483664;28;20037;-36
2022/07/08 06:29:41;;;;;;;6.28;1.52;;;14.20;99.90;;;;;;12484844;28;20096;-36
2022/07/08 06:35:43;;;;;;;10.05;1.42;;;14.20;99.90;;;;;;12485285;28;20172;-39
2022/07/08 06:41:46;;;;;;;11.65;1.58;;;14.30;99.90;;;;;;12476673;28;20055;-39
2022/07/08 06:47:47;;;;;;;8.90;1.55;;;14.40;99.90;;;;;;12477155;28;20523;-36
2022/07/08 07:00:10;;;;;;;7.80;1.27;;;14.60;99.90;;;;;;12486822;28;20134;-36
2022/07/08 07:06:22;;;;;;;7.25;1.30;;;14.60;99.90;;;;;;12485492;28;20106;-40
2022/07/08 07:12:24;;;;;;;6.25;1.33;;;14.70;99.90;;;;;;12471264;28;20046;-39
2022/07/08 07:18:26;;;;;;;10.38;1.50;;;14.70;99.90;;;;;;12477169;28;20085;-40
2022/07/08 07:24:28;;;;;;;4.65;1.15;;;14.60;99.90;;;;;;12489479;28;20076;-36
2022/07/08 07:30:30;;;;;;;14.75;2.38;;;14.60;99.90;;;;;;12500246;28;20049;-36
2022/07/08 07:36:32;;;;;;;8.88;1.60;;;14.80;99.90;;;;;;12500623;28;20084;-36
2022/07/08 07:42:34;;;;;;;6.28;1.40;;;14.90;99.90;;;;;;12485793;28;20051;-36
2022/07/08 07:48:36;;;;;;;6.15;1.33;;;15.00;99.90;;;;;;12493804;28;20505;-36
2022/07/08 07:54:38;;;;;;;9.82;1.40;;;14.90;99.90;;;;;;12497955;28;20052;-36
2022/07/08 08:00:40;;;;;;;6.00;1.13;;;15.00;99.90;;;;;;12490669;28;20132;-40
2022/07/08 08:06:41;;;;;;;8.07;1.55;;;15.20;99.90;;;;;;12493282;28;20049;-36
2022/07/08 08:12:43;;;;;;;5.72;1.10;;;15.30;99.90;;;;;;12494677;28;20501;-37
2022/07/08 08:18:45;;;;;;;6.97;1.30;;;15.60;99.90;;;;;;12489871;28;20199;-39
2022/07/08 08:24:47;;;;;;;8.13;1.30;;;15.70;99.90;;;;;;12491711;28;20048;-36
2022/07/08 08:30:49;;;;;;;9.63;1.25;;;15.80;99.90;;;;;;12501312;28;20056;-35
2022/07/08 08:36:51;;;;;;;9.38;1.50;;;15.70;99.90;;;;;;12491695;28;20079;-36
2022/07/08 08:42:53;;;;;;;6.90;1.38;;;15.80;99.90;;;;;;12479081;28;20045;-40
2022/07/08 08:48:56;;;;;;;5.85;1.27;;;15.90;99.90;;;;;;12487525;28;20096;-36
2022/07/08 08:54:58;;;;;;;5.60;1.05;;;16.00;99.90;;;;;;12495866;28;20041;-36
2022/07/08 09:01:00;;;;;;;5.32;1.35;;;16.00;99.90;;;;;;12483069;28;20076;-36
2022/07/08 09:07:03;;;;;;;8.85;1.55;;;16.30;99.90;;;;;;12490955;28;20052;-36
2022/07/08 09:13:13;;;;;;;10.13;1.77;;;16.30;99.90;;;;;;12471493;28;20119;-36
2022/07/08 09:19:19;;;;;;;12.13;1.85;;;16.40;99.90;;;;;;12486650;28;20060;-39
2022/07/08 09:25:26;;;;;;;10.18;1.52;;;16.40;99.90;;;;;;12490247;28;20068;-39
2022/07/08 09:31:34;;;;;;;6.38;1.17;;;16.40;99.90;;;;;;12499656;28;20049;-39
2022/07/08 09:37:36;;;;;;;7.65;1.50;;;16.60;99.90;;;;;;12497297;28;20046;-36
2022/07/08 09:43:49;;;;;;;7.00;1.52;;;16.60;99.90;;;;;;12495558;28;20413;-36
2022/07/08 09:49:52;;;;;;;7.72;1.48;;;16.70;99.90;;;;;;12481707;28;20041;-39
2022/07/08 09:55:56;;;;;;;4.95;1.15;;;16.80;99.90;;;;;;12498533;28;20049;-36
2022/07/08 10:01:59;;;;;;;7.97;1.23;;;16.90;99.90;;;;;;12496482;28;20049;-36
2022/07/08 10:08:02;;;;;;;11.07;1.33;;;17.10;99.90;;;;;;12496315;28;20045;-36
2022/07/08 10:14:06;;;;;;;8.80;1.50;;;17.30;99.90;;;;;;12494244;28;20049;-39
2022/07/08 10:20:09;;;;;;;8.60;1.40;;;17.40;99.90;;;;;;12499587;28;20532;-39
2022/07/08 10:26:13;;;;;;;6.55;1.48;;;17.50;99.90;;;;;;12499582;28;20421;-40
2022/07/08 10:32:27;;;;;;;;;;;17.50;99.90;;;;;;12492132;28;20088;-39
2022/07/08 10:38:33;;;;;;;7.47;1.47;;;17.60;99.90;;;;;;12492508;28;19920;-36
2022/07/08 10:44:44;;;;;;;13.75;2.25;;;17.40;99.90;;;;;;12489345;28;20079;-35
2022/07/08 10:50:45;;;;;;;11.20;2.17;;;17.40;99.90;;;;;;12491483;28;20501;-36
2022/07/08 10:57:01;;;;;;;10.57;1.40;;;17.40;99.90;;;;;;12481451;28;20053;-36
2022/07/08 11:03:03;;;;;;;10.02;1.95;;;17.20;99.90;;;;;;12488439;28;20136;-39
2022/07/08 11:09:07;;;;;;;11.82;2.15;;;17.30;99.90;;;;;;12491164;28;20098;-39
2022/07/08 11:15:16;;;;;;;9.37;1.60;;;17.30;99.90;;;;;;12491697;28;20053;-36
2022/07/08 11:21:18;;;;;;;13.32;1.65;;;17.40;99.90;;;;;;12491545;28;20288;-36
2022/07/08 11:27:31;;;;;;;8.85;1.60;;;17.30;99.90;;;;;;12493700;28;20053;-39
2022/07/08 11:33:42;;;;;;;9.85;2.15;;;17.30;99.90;;;;;;12492777;28;20132;-39
2022/07/08 11:39:45;;;;;;;12.50;2.20;;;17.40;99.90;;;;;;12493791;28;20045;-39
2022/07/08 11:45:47;;;;;;;6.78;1.55;;;17.50;99.90;;;;;;12491880;28;20044;-36
2022/07/08 11:51:57;;;;;;;6.43;1.40;;;17.60;99.90;;;;;;12494214;28;20068;-39
2022/07/08 11:58:00;;;;;;;8.93;1.67;;;17.70;99.90;;;;;;12491012;28;20305;-39
2022/07/08 12:04:12;;;;;;;6.45;1.70;;;17.80;99.90;;;;;;12481961;28;20046;-39
2022/07/08 12:10:22;;;;;;;7.03;1.48;;;17.90;99.90;;;;;;12491307;28;20041;-39
2022/07/08 12:16:32;;;;;;;30.88;3.08;;;18.00;99.90;;;;;;12496892;28;20063;-36
2022/07/08 12:22:42;;;;;;;8.82;1.95;;;18.00;99.90;;;;;;12499945;28;20041;-40
2022/07/08 12:28:44;;;;;;;7.95;1.60;;;18.00;99.90;;;;;;12497930;28;20049;-37
2022/07/08 12:34:51;;;;;;;7.07;1.35;;;18.00;99.90;;;;;;12501398;28;20049;-40
2022/07/08 12:40:53;;;;;;;7.30;2.13;;;17.90;99.90;;;;;;12500630;28;20507;-40
2022/07/08 12:46:56;;;;;;;5.05;1.52;;;18.00;99.90;;;;;;12499575;28;20061;-36
2022/07/08 12:52:59;;;;;;;6.33;1.63;;;18.20;99.90;;;;;;12498755;28;20049;-40
2022/07/08 12:59:01;;;;;;;10.48;2.22;;;18.60;99.90;;;;;;12493364;28;20077;-36
2022/07/08 13:05:04;;;;;;;7.97;2.17;;;18.80;99.90;;;;;;12488605;28;20527;-39
2022/07/08 13:11:12;;;;;;;5.93;2.00;;;18.80;99.90;;;;;;12499903;28;20042;-39
2022/07/08 13:17:15;;;;;;;7.72;1.80;;;18.70;99.90;;;;;;12502937;28;20073;-36
2022/07/08 13:23:17;;;;;;;6.50;1.83;;;18.70;99.90;;;;;;12499727;28;20117;-42
2022/07/08 13:29:19;;;;;;;10.27;1.83;;;18.80;99.90;;;;;;12494463;28;20188;-40
2022/07/08 13:35:21;;;;;;;6.22;1.92;;;18.90;99.90;;;;;;12497151;28;20037;-40
2022/07/08 13:41:29;;;;;;;6.85;1.88;;;18.80;99.90;;;;;;12491194;28;20447;-37
2022/07/08 13:47:32;;;;;;;6.97;2.17;;;18.70;99.90;;;;;;12481646;28;20049;-40
2022/07/08 13:53:35;;;;;;;4.97;1.77;;;18.70;99.90;;;;;;12485690;28;20052;-37
2022/07/08 13:59:37;;;;;;;5.00;1.50;;;18.70;99.90;;;;;;12497110;28;20478;-37
2022/07/08 14:05:39;;;;;;;5.35;1.50;;;18.90;99.90;;;;;;12495002;28;20053;-40
2022/07/08 14:11:41;;;;;;;4.07;1.40;;;18.90;99.90;;;;;;12495487;28;20045;-41
2022/07/08 14:17:43;;;;;;;2.83;1.20;;;19.00;99.90;;;;;;12493154;28;20045;-40
2022/07/08 14:23:46;;;;;;;6.78;1.38;;;19.00;99.90;;;;;;12497501;28;20517;-40
2022/07/08 14:29:52;;;;;;;3.37;1.70;;;18.90;99.90;;;;;;12495199;28;20062;-37
2022/07/08 14:35:56;;;;;;;6.13;1.42;;;18.80;99.90;;;;;;12493593;28;20034;-37
2022/07/08 14:42:01;;;;;;;6.25;2.05;;;18.70;99.90;;;;;;12495353;28;20054;-35
2022/07/08 14:48:03;;;;;;;3.57;1.30;;;18.80;99.90;;;;;;12496053;28;20489;-39
2022/07/08 14:54:06;;;;;;;4.75;1.38;;;19.00;99.90;;;;;;12492706;28;20288;-39
2022/07/08 15:00:08;;;;;;;6.10;1.52;;;19.10;99.90;;;;;;12496329;28;20042;-39
2022/07/08 15:06:11;;;;;;;5.35;1.60;;;19.20;99.90;;;;;;12451336;28;20049;-35
2022/07/08 15:12:16;;;;;;;12.23;1.92;;;19.10;99.90;;;;;;12494653;28;20049;-40
2022/07/08 15:18:18;;;;;;;7.15;1.67;;;19.50;99.90;;;;;;12501302;28;20049;-39
2022/07/08 15:24:20;;;;;;;8.40;1.77;;;19.80;99.90;;;;;;12491738;28;20119;-35
2022/07/08 15:30:22;;;;;;;6.72;1.88;;;19.90;99.90;;;;;;12493839;28;20045;-39
2022/07/08 15:36:25;;;;;;;5.35;1.60;;;20.00;99.90;;;;;;12494599;28;20409;-35
2022/07/08 15:42:27;;;;;;;8.88;1.23;;;20.10;99.90;;;;;;12476805;28;20412;-35
2022/07/08 15:48:29;;;;;;;7.07;1.48;;;20.00;99.90;;;;;;12498734;28;20057;-35
2022/07/08 15:54:31;;;;;;;4.97;1.55;;;20.00;99.90;;;;;;12504844;28;20045;-39
2022/07/08 16:00:33;;;;;;;3.35;1.08;;;20.10;99.90;;;;;;12498805;28;20089;-35
2022/07/08 16:06:37;;;;;;;4.45;1.60;;;20.20;99.90;;;;;;12498961;28;20049;-38
2022/07/08 16:12:39;;;;;;;3.60;1.60;;;20.30;99.90;;;;;;12502466;28;20465;-39
2022/07/08 16:18:40;;;;;;;3.70;1.13;;;20.70;99.90;;;;;;12497394;28;20521;-35
2022/07/08 16:24:43;;;;;;;9.13;1.63;;;20.40;99.90;;;;;;12501550;28;20041;-35
2022/07/08 16:30:45;;;;;;;3.05;1.20;;;20.60;99.90;;;;;;12500326;28;20041;-35
2022/07/08 16:36:47;;;;;;;4.50;1.40;;;20.60;99.90;;;;;;12501197;28;20132;-35
2022/07/08 16:42:48;;;;;;;5.97;1.30;;;20.90;99.90;;;;;;12500711;28;20670;-39
2022/07/08 16:48:51;;;;;;;4.75;1.20;;;21.40;99.90;;;;;;12499703;28;20183;-35
2022/07/08 16:54:53;;;;;;;4.93;1.50;;;21.50;99.90;;;;;;12495929;28;20127;-35
2022/07/08 17:00:56;;;;;;;7.38;1.60;;;21.30;99.90;;;;;;12498753;28;20042;-39
2022/07/08 17:06:59;;;;;;;8.10;1.52;;;21.20;99.90;;;;;;12499737;28;20058;-35
2022/07/08 17:13:01;;;;;;;4.47;1.20;;;21.30;99.90;;;;;;12492270;28;20053;-35
2022/07/08 17:19:03;;;;;;;5.30;1.55;;;21.40;99.90;;;;;;12498785;28;20065;-35
2022/07/08 17:25:06;;;;;;;6.60;1.33;;;21.30;99.90;;;;;;12501341;28;20140;-39
2022/07/08 17:31:08;;;;;;;4.63;1.45;;;21.30;99.90;;;;;;12499580;28;20099;-40
2022/07/08 17:37:13;;;;;;;6.43;1.83;;;21.60;99.90;;;;;;12499129;28;20053;-39
2022/07/08 17:43:15;;;;;;;7.55;1.63;;;21.50;99.90;;;;;;12498057;28;20066;-39
2022/07/08 17:49:17;;;;;;;4.93;1.30;;;21.50;99.90;;;;;;12496078;28;20049;-41
2022/07/08 17:55:19;;;;;;;5.32;1.63;;;21.20;99.90;;;;;;12500417;28;20144;-36
2022/07/08 18:01:22;;;;;;;6.07;1.50;;;20.80;99.90;;;;;;12498263;28;20485;-35
2022/07/08 18:07:25;;;;;;;3.90;1.85;;;20.40;99.90;;;;;;12497567;28;20057;-35
2022/07/08 18:13:27;;;;;;;8.68;1.85;;;20.10;99.90;;;;;;12489186;28;20057;-39
2022/07/08 18:19:29;;;;;;;6.90;1.90;;;19.90;99.90;;;;;;12496351;28;20088;-39
2022/07/08 18:25:31;;;;;;;4.05;1.40;;;19.80;99.90;;;;;;12491353;28;20045;-35
2022/07/08 18:31:34;;;;;;;4.32;1.30;;;19.70;99.90;;;;;;12497537;28;20509;-39
2022/07/08 18:37:36;;;;;;;5.07;1.40;;;19.60;99.90;;;;;;12494336;28;20091;-35
2022/07/08 18:43:39;;;;;;;5.45;1.60;;;19.50;99.90;;;;;;12494642;28;20046;-39
2022/07/08 18:49:41;;;;;;;3.67;1.75;;;19.50;99.90;;;;;;12495238;28;20050;-35
2022/07/08 18:55:43;;;;;;;4.57;1.60;;;19.40;99.90;;;;;;12492723;28;20127;-35
2022/07/08 19:01:45;;;;;;;6.22;1.73;;;19.40;99.90;;;;;;12491121;28;20042;-34
2022/07/08 19:07:48;;;;;;;4.55;1.58;;;19.30;99.90;;;;;;12491257;28;20401;-35
2022/07/08 19:13:50;;;;;;;5.80;1.80;;;19.30;99.90;;;;;;12492655;28;20041;-39
2022/07/08 19:19:55;;;;;;;4.70;1.63;;;19.20;99.90;;;;;;12487412;28;20084;-35
2022/07/08 19:25:57;;;;;;;6.93;2.15;;;19.20;99.90;;;;;;12499096;28;20421;-39
2022/07/08 19:31:59;;;;;;;7.45;1.92;;;19.10;99.90;;;;;;12493670;28;20092;-39
2022/07/08 19:38:01;;;;;;;5.97;2.28;;;19.10;99.90;;;;;;12492872;28;20045;-39
2022/07/08 19:44:05;;;;;;;6.30;2.20;;;18.90;99.90;;;;;;12491975;28;20046;-35
2022/07/08 19:50:07;;;;;;;6.63;2.38;;;18.80;99.90;;;;;;12492038;28;20459;-38
2022/07/08 19:56:10;;;;;;;5.28;2.10;;;18.80;99.90;;;;;;12447109;28;20057;-35
2022/07/08 20:02:12;;;;;;;4.13;1.70;;;18.80;99.90;;;;;;12490003;28;20042;-39
2022/07/08 20:08:14;;;;;;;5.57;2.00;;;18.80;99.90;;;;;;12491519;28;20045;-35
2022/07/08 20:14:16;;;;;;;6.65;1.85;;;18.70;99.90;;;;;;12492690;28;20080;-35
2022/07/08 20:20:19;;;;;;;5.45;1.85;;;18.60;99.90;;;;;;12492449;28;20061;-35
2022/07/08 20:26:20;;;;;;;3.70;1.90;;;18.70;99.90;;;;;;12473246;28;20103;-35
2022/07/08 20:32:24;;;;;;;5.53;1.95;;;18.60;99.90;;;;;;12494169;28;20041;-35
2022/07/08 20:38:27;;;;;;;5.85;2.13;;;18.70;99.90;;;;;;12500537;28;20128;-39
2022/07/08 20:44:30;;;;;;;6.90;2.10;;;18.60;99.90;;;;;;12481818;28;20049;-39
2022/07/08 20:50:33;;;;;;;6.38;2.20;;;18.50;99.90;;;;;;12499347;28;20092;-35
2022/07/08 20:56:35;;;;;;;6.40;2.50;;;18.40;99.90;;;;;;12499889;28;20409;-38
2022/07/08 21:02:38;;;;;;;5.60;2.20;;;18.30;99.90;;;;;;12498981;28;20132;-39
2022/07/08 21:08:40;;;;;;;7.07;2.78;;;18.30;99.90;;;;;;12496368;28;20651;-38
2022/07/08 21:14:42;;;;;;;6.68;2.42;;;18.30;99.90;;;;;;12496416;28;20041;-38
2022/07/08 21:20:43;;;;;;;4.63;2.15;;;18.30;99.90;;;;;;12497539;28;20091;-39
2022/07/08 21:26:45;;;;;;;5.93;2.33;;;18.30;99.90;;;;;;12496931;28;20114;-35
2022/07/08 21:32:47;;;;;;;4.25;2.50;;;18.20;99.90;;;;;;12495605;28;20052;-39
2022/07/08 21:38:49;;;;;;;6.07;2.00;;;18.30;99.90;;;;;;12496485;28;20049;-39
2022/07/08 21:44:51;;;;;;;6.88;2.35;;;18.40;99.90;;;;;;12491781;28;20308;-35
2022/07/08 21:50:52;;;;;;;7.80;2.50;;;18.40;99.90;;;;;;12496308;28;20050;-34
2022/07/08 21:56:55;;;;;;;6.53;2.70;;;18.40;99.90;;;;;;12496604;28;20087;-39
2022/07/08 22:02:57;;;;;;;6.88;2.90;;;18.30;99.90;;;;;;12495725;28;20129;-34
2022/07/08 22:08:58;;;;;;;3.75;2.10;;;18.10;99.90;;;;;;12495252;28;20103;-38
2022/07/08 22:15:04;;;;;;;5.15;2.10;;;18.20;99.90;;;;;;12492327;28;20088;-34
2022/07/08 22:21:08;;;;;;;5.57;2.20;;;18.10;99.90;;;;;;12493741;28;20050;-34
2022/07/08 22:27:10;;;;;;;;;;;18.10;99.90;;;;;;12485848;28;20180;-34
2022/07/08 22:33:12;;;;;;;9.55;2.95;;;18.10;99.90;;;;;;12493272;28;19928;-38
2022/07/08 22:39:14;;;;;;;4.93;1.98;;;17.90;99.90;;;;;;12498291;28;20077;-39
2022/07/08 22:45:16;;;;;;;6.82;2.47;;;17.80;99.90;;;;;;12493122;28;20470;-34
2022/07/08 22:51:18;;;;;;;6.15;2.90;;;17.80;99.90;;;;;;12492961;28;20045;-38
2022/07/08 22:57:19;;;;;;;9.85;2.65;;;17.50;99.90;;;;;;12493008;28;20134;-38
2022/07/08 23:03:21;;;;;;;4.65;2.15;;;17.40;99.90;;;;;;12491767;28;20072;-38
2022/07/08 23:09:23;;;;;;;7.78;2.03;;;17.40;99.90;;;;;;12491458;28;20046;-35
2022/07/08 23:15:25;;;;;;;5.28;2.20;;;17.50;99.90;;;;;;12490979;28;20107;-34
2022/07/08 23:21:27;;;;;;;4.03;1.80;;;17.60;99.90;;;;;;12491569;28;20088;-34
2022/07/08 23:27:29;;;;;;;6.05;2.28;;;17.60;99.90;;;;;;12492287;28;20056;-38
2022/07/08 23:33:31;;;;;;;6.40;2.30;;;17.60;99.90;;;;;;12492239;28;20124;-38
2022/07/08 23:39:33;;;;;;;3.95;1.90;;;17.60;99.90;;;;;;12496824;28;20117;-38
2022/07/08 23:45:35;;;;;;;5.25;2.45;;;17.60;99.90;;;;;;12490708;28;20183;-34
2022/07/08 23:51:39;;;;;;;7.47;2.30;;;17.70;99.90;;;;;;12491383;28;20140;-35
2022/07/08 23:57:41;;;;;;;7.55;2.40;;;17.50;99.90;;;;;;12497868;28;20046;-39
